sensor_id;sensor_type;location;lat;lon;timestamp;temperature;humidity
4564;DHT22;2294;51.818;8.484;2022-12-20T00:01:06;12.40;99.90
4564;DHT22;2294;51.818;8.484;2022-12-20T00:03:34;12.20;99.90
4564;DHT22;2294;51.818;8.484;2022-12-20T00:06:00;12.30;99.90
4564;DHT22;2294;51.818;8.484;2022-12-20T00:08:27;12.40;99.90
4564;DHT22;2294;51.818;8.484;2022-12-20T00:10:59;12.30;99.90
4564;DHT22;2294;51.818;8.484;2022-12-20T00:13:27;12.40;99.90
4564;DHT22;2294;51.818;8.484;2022-12-20T00:16:03;12.30;99.90
4564;DHT22;2294;51.818;8.484;2022-12-20T00:18:30;12.40;99.90
4564;DHT22;2294;51.818;8.484;2022-12-20T00:20:58;12.30;99.90
4564;DHT22;2294;51.818;8.484;2022-12-20T00:23:25;12.30;99.90
4564;DHT22;2294;51.818;8.484;2022-12-20T00:25:51;12.40;99.90
4564;DHT22;2294;51.818;8.484;2022-12-20T00:28:20;12.40;99.90
4564;DHT22;2294;51.818;8.484;2022-12-20T00:30:52;12.50;99.90
4564;DHT22;2294;51.818;8.484;2022-12-20T00:33:19;12.50;99.90
4564;DHT22;2294;51.818;8.484;2022-12-20T00:35:46;12.50;99.90
4564;DHT22;2294;51.818;8.484;2022-12-20T00:38:13;12.60;99.90
4564;DHT22;2294;51.818;8.484;2022-12-20T00:40:40;12.70;99.90
4564;DHT22;2294;51.818;8.484;2022-12-20T00:43:06;12.70;99.90
4564;DHT22;2294;51.818;8.484;2022-12-20T00:45:35;12.80;99.90
4564;DHT22;2294;51.818;8.484;2022-12-20T00:48:02;12.80;99.90
4564;DHT22;2294;51.818;8.484;2022-12-20T00:50:29;12.90;99.90
4564;DHT22;2294;51.818;8.484;2022-12-20T00:52:56;12.90;99.90
4564;DHT22;2294;51.818;8.484;2022-12-20T00:55:22;13.00;99.90
4564;DHT22;2294;51.818;8.484;2022-12-20T00:57:49;12.90;99.90
4564;DHT22;2294;51.818;8.484;2022-12-20T01:00:17;12.90;99.90
4564;DHT22;2294;51.818;8.484;2022-12-20T01:02:45;13.00;99.90
4564;DHT22;2294;51.818;8.484;2022-12-20T01:05:12;12.90;99.90
4564;DHT22;2294;51.818;8.484;2022-12-20T01:07:39;12.90;99.90
4564;DHT22;2294;51.818;8.484;2022-12-20T01:10:07;13.00;99.90
4564;DHT22;2294;51.818;8.484;2022-12-20T01:12:34;12.90;99.90
4564;DHT22;2294;51.818;8.484;2022-12-20T01:15:01;12.80;99.90
4564;DHT22;2294;51.818;8.484;2022-12-20T01:17:28;12.80;99.90
4564;DHT22;2294;51.818;8.484;2022-12-20T01:19:56;12.80;99.90
4564;DHT22;2294;51.818;8.484;2022-12-20T01:22:23;12.90;99.90
4564;DHT22;2294;51.818;8.484;2022-12-20T01:24:50;13.00;99.90
4564;DHT22;2294;51.818;8.484;2022-12-20T01:27:17;12.80;99.90
4564;DHT22;2294;51.818;8.484;2022-12-20T01:29:44;12.90;99.90
4564;DHT22;2294;51.818;8.484;2022-12-20T01:32:11;13.00;99.90
4564;DHT22;2294;51.818;8.484;2022-12-20T01:34:38;13.00;99.90
4564;DHT22;2294;51.818;8.484;2022-12-20T01:37:06;12.90;99.90
4564;DHT22;2294;51.818;8.484;2022-12-20T01:39:33;12.90;99.90
4564;DHT22;2294;51.818;8.484;2022-12-20T01:42:00;13.00;99.90
4564;DHT22;2294;51.818;8.484;2022-12-20T01:44:53;13.00;99.90
4564;DHT22;2294;51.818;8.484;2022-12-20T01:47:20;12.90;99.90
4564;DHT22;2294;51.818;8.484;2022-12-20T01:49:50;13.00;99.90
4564;DHT22;2294;51.818;8.484;2022-12-20T01:52:25;13.00;99.90
4564;DHT22;2294;51.818;8.484;2022-12-20T01:54:55;13.10;99.90
4564;DHT22;2294;51.818;8.484;2022-12-20T01:57:26;13.00;99.90
4564;DHT22;2294;51.818;8.484;2022-12-20T01:59:55;13.00;99.90
4564;DHT22;2294;51.818;8.484;2022-12-20T02:02:23;12.90;99.90
4564;DHT22;2294;51.818;8.484;2022-12-20T02:04:50;12.80;99.90
4564;DHT22;2294;51.818;8.484;2022-12-20T02:07:22;12.70;99.90
4564;DHT22;2294;51.818;8.484;2022-12-20T02:09:50;12.80;99.90
4564;DHT22;2294;51.818;8.484;2022-12-20T02:12:20;12.90;99.90
4564;DHT22;2294;51.818;8.484;2022-12-20T02:15:02;13.00;99.90
4564;DHT22;2294;51.818;8.484;2022-12-20T02:17:37;12.70;99.90
4564;DHT22;2294;51.818;8.484;2022-12-20T02:20:21;12.60;99.90
4564;DHT22;2294;51.818;8.484;2022-12-20T02:23:18;12.60;99.90
4564;DHT22;2294;51.818;8.484;2022-12-20T02:26:00;12.50;99.90
4564;DHT22;2294;51.818;8.484;2022-12-20T02:28:50;12.50;99.90
4564;DHT22;2294;51.818;8.484;2022-12-20T02:31:25;12.50;99.90
4564;DHT22;2294;51.818;8.484;2022-12-20T02:33:54;12.70;99.90
4564;DHT22;2294;51.818;8.484;2022-12-20T02:36:23;12.60;99.90
4564;DHT22;2294;51.818;8.484;2022-12-20T02:38:51;12.60;99.90
4564;DHT22;2294;51.818;8.484;2022-12-20T02:41:20;12.50;99.90
4564;DHT22;2294;51.818;8.484;2022-12-20T02:43:53;13.50;99.90
4564;DHT22;2294;51.818;8.484;2022-12-20T02:46:41;12.40;99.90
4564;DHT22;2294;51.818;8.484;2022-12-20T02:49:11;12.40;99.90
4564;DHT22;2294;51.818;8.484;2022-12-20T02:51:59;12.40;99.90
4564;DHT22;2294;51.818;8.484;2022-12-20T02:54:28;12.40;99.90
4564;DHT22;2294;51.818;8.484;2022-12-20T02:56:59;12.40;99.90
4564;DHT22;2294;51.818;8.484;2022-12-20T02:59:29;12.50;99.90
4564;DHT22;2294;51.818;8.484;2022-12-20T03:01:59;12.40;99.90
4564;DHT22;2294;51.818;8.484;2022-12-20T03:04:29;12.50;99.90
4564;DHT22;2294;51.818;8.484;2022-12-20T03:06:58;12.40;99.90
4564;DHT22;2294;51.818;8.484;2022-12-20T03:09:25;12.40;99.90
4564;DHT22;2294;51.818;8.484;2022-12-20T03:11:53;12.40;99.90
4564;DHT22;2294;51.818;8.484;2022-12-20T03:14:20;12.30;99.90
4564;DHT22;2294;51.818;8.484;2022-12-20T03:16:47;12.30;99.90
4564;DHT22;2294;51.818;8.484;2022-12-20T03:19:15;12.20;99.90
4564;DHT22;2294;51.818;8.484;2022-12-20T03:21:42;12.10;99.90
4564;DHT22;2294;51.818;8.484;2022-12-20T03:24:09;12.30;99.90
4564;DHT22;2294;51.818;8.484;2022-12-20T03:26:38;12.30;99.90
4564;DHT22;2294;51.818;8.484;2022-12-20T03:29:05;12.20;99.90
4564;DHT22;2294;51.818;8.484;2022-12-20T03:31:32;12.30;99.90
4564;DHT22;2294;51.818;8.484;2022-12-20T03:33:59;12.30;99.90
4564;DHT22;2294;51.818;8.484;2022-12-20T03:36:27;12.30;99.90
4564;DHT22;2294;51.818;8.484;2022-12-20T03:38:54;12.30;99.90
4564;DHT22;2294;51.818;8.484;2022-12-20T03:41:22;12.50;99.90
4564;DHT22;2294;51.818;8.484;2022-12-20T03:43:49;12.30;99.90
4564;DHT22;2294;51.818;8.484;2022-12-20T03:46:16;12.50;99.90
4564;DHT22;2294;51.818;8.484;2022-12-20T03:48:43;12.60;99.90
4564;DHT22;2294;51.818;8.484;2022-12-20T03:51:10;12.60;99.90
4564;DHT22;2294;51.818;8.484;2022-12-20T03:53:38;12.50;99.90
4564;DHT22;2294;51.818;8.484;2022-12-20T03:56:05;12.60;99.90
4564;DHT22;2294;51.818;8.484;2022-12-20T03:58:32;12.40;99.90
4564;DHT22;2294;51.818;8.484;2022-12-20T04:00:59;12.40;99.90
4564;DHT22;2294;51.818;8.484;2022-12-20T04:03:26;12.30;99.90
4564;DHT22;2294;51.818;8.484;2022-12-20T04:05:53;12.20;99.90
4564;DHT22;2294;51.818;8.484;2022-12-20T04:08:20;12.30;99.90
4564;DHT22;2294;51.818;8.484;2022-12-20T04:10:48;12.20;99.90
4564;DHT22;2294;51.818;8.484;2022-12-20T04:13:49;12.30;99.90
4564;DHT22;2294;51.818;8.484;2022-12-20T04:16:18;12.30;99.90
4564;DHT22;2294;51.818;8.484;2022-12-20T04:18:45;12.50;99.90
4564;DHT22;2294;51.818;8.484;2022-12-20T04:21:13;12.50;99.90
4564;DHT22;2294;51.818;8.484;2022-12-20T04:23:41;12.30;99.90
4564;DHT22;2294;51.818;8.484;2022-12-20T04:26:10;12.30;99.90
4564;DHT22;2294;51.818;8.484;2022-12-20T04:28:37;12.20;99.90
4564;DHT22;2294;51.818;8.484;2022-12-20T04:31:04;12.20;99.90
4564;DHT22;2294;51.818;8.484;2022-12-20T04:33:32;12.20;99.90
4564;DHT22;2294;51.818;8.484;2022-12-20T04:35:59;12.10;99.90
4564;DHT22;2294;51.818;8.484;2022-12-20T04:38:26;12.10;99.90
4564;DHT22;2294;51.818;8.484;2022-12-20T04:40:54;12.00;99.90
4564;DHT22;2294;51.818;8.484;2022-12-20T04:43:23;12.10;99.90
4564;DHT22;2294;51.818;8.484;2022-12-20T04:45:52;12.10;99.90
4564;DHT22;2294;51.818;8.484;2022-12-20T04:48:21;12.00;99.90
4564;DHT22;2294;51.818;8.484;2022-12-20T04:50:49;11.90;99.90
4564;DHT22;2294;51.818;8.484;2022-12-20T04:53:16;11.90;99.90
4564;DHT22;2294;51.818;8.484;2022-12-20T04:56:01;11.70;99.90
4564;DHT22;2294;51.818;8.484;2022-12-20T04:58:29;11.90;99.90
4564;DHT22;2294;51.818;8.484;2022-12-20T05:00:56;11.90;99.90
4564;DHT22;2294;51.818;8.484;2022-12-20T05:03:24;11.80;99.90
4564;DHT22;2294;51.818;8.484;2022-12-20T05:05:52;11.90;99.90
4564;DHT22;2294;51.818;8.484;2022-12-20T05:08:19;11.90;99.90
4564;DHT22;2294;51.818;8.484;2022-12-20T05:10:46;12.00;99.90
4564;DHT22;2294;51.818;8.484;2022-12-20T05:13:13;12.00;99.90
4564;DHT22;2294;51.818;8.484;2022-12-20T05:15:42;12.00;99.90
4564;DHT22;2294;51.818;8.484;2022-12-20T05:18:09;12.00;99.90
4564;DHT22;2294;51.818;8.484;2022-12-20T05:20:36;12.00;99.90
4564;DHT22;2294;51.818;8.484;2022-12-20T05:23:03;12.00;99.90
4564;DHT22;2294;51.818;8.484;2022-12-20T05:25:48;11.90;99.90
4564;DHT22;2294;51.818;8.484;2022-12-20T05:28:30;12.00;99.90
4564;DHT22;2294;51.818;8.484;2022-12-20T05:30:59;11.90;99.90
4564;DHT22;2294;51.818;8.484;2022-12-20T05:33:26;11.90;99.90
4564;DHT22;2294;51.818;8.484;2022-12-20T05:35:53;12.00;99.90
4564;DHT22;2294;51.818;8.484;2022-12-20T05:38:20;12.00;99.90
4564;DHT22;2294;51.818;8.484;2022-12-20T05:40:48;12.00;99.90
4564;DHT22;2294;51.818;8.484;2022-12-20T05:43:16;12.10;99.90
4564;DHT22;2294;51.818;8.484;2022-12-20T05:45:45;12.10;99.90
4564;DHT22;2294;51.818;8.484;2022-12-20T05:48:14;12.20;99.90
4564;DHT22;2294;51.818;8.484;2022-12-20T05:50:41;12.20;99.90
4564;DHT22;2294;51.818;8.484;2022-12-20T05:53:10;12.20;99.90
4564;DHT22;2294;51.818;8.484;2022-12-20T05:55:36;12.20;99.90
4564;DHT22;2294;51.818;8.484;2022-12-20T05:58:05;12.20;99.90
4564;DHT22;2294;51.818;8.484;2022-12-20T06:00:32;12.30;99.90
4564;DHT22;2294;51.818;8.484;2022-12-20T06:02:59;12.40;99.90
4564;DHT22;2294;51.818;8.484;2022-12-20T06:05:27;12.30;99.90
4564;DHT22;2294;51.818;8.484;2022-12-20T06:07:54;12.40;99.90
4564;DHT22;2294;51.818;8.484;2022-12-20T06:10:21;12.40;99.90
4564;DHT22;2294;51.818;8.484;2022-12-20T06:12:48;12.30;99.90
4564;DHT22;2294;51.818;8.484;2022-12-20T06:15:15;12.30;99.90
4564;DHT22;2294;51.818;8.484;2022-12-20T06:17:42;12.30;99.90
4564;DHT22;2294;51.818;8.484;2022-12-20T06:20:09;12.40;99.90
4564;DHT22;2294;51.818;8.484;2022-12-20T06:22:39;12.40;99.90
4564;DHT22;2294;51.818;8.484;2022-12-20T06:25:06;12.40;99.90
4564;DHT22;2294;51.818;8.484;2022-12-20T06:27:34;12.40;99.90
4564;DHT22;2294;51.818;8.484;2022-12-20T06:30:01;12.50;99.90
4564;DHT22;2294;51.818;8.484;2022-12-20T06:32:29;12.50;99.90
4564;DHT22;2294;51.818;8.484;2022-12-20T06:34:55;12.50;99.90
4564;DHT22;2294;51.818;8.484;2022-12-20T06:37:22;12.60;99.90
4564;DHT22;2294;51.818;8.484;2022-12-20T06:39:50;12.70;99.90
4564;DHT22;2294;51.818;8.484;2022-12-20T06:42:17;12.70;99.90
4564;DHT22;2294;51.818;8.484;2022-12-20T06:44:44;12.70;99.90
4564;DHT22;2294;51.818;8.484;2022-12-20T06:47:11;12.80;99.90
4564;DHT22;2294;51.818;8.484;2022-12-20T06:49:38;12.70;99.90
4564;DHT22;2294;51.818;8.484;2022-12-20T06:52:05;12.70;99.90
4564;DHT22;2294;51.818;8.484;2022-12-20T06:54:32;12.80;99.90
4564;DHT22;2294;51.818;8.484;2022-12-20T06:57:00;12.90;99.90
4564;DHT22;2294;51.818;8.484;2022-12-20T06:59:27;12.90;99.90
4564;DHT22;2294;51.818;8.484;2022-12-20T07:01:53;13.00;99.90
4564;DHT22;2294;51.818;8.484;2022-12-20T07:04:20;13.10;99.90
4564;DHT22;2294;51.818;8.484;2022-12-20T07:06:47;13.10;99.90
4564;DHT22;2294;51.818;8.484;2022-12-20T07:09:15;13.10;99.90
4564;DHT22;2294;51.818;8.484;2022-12-20T07:11:42;13.20;99.90
4564;DHT22;2294;51.818;8.484;2022-12-20T07:14:10;13.10;99.90
4564;DHT22;2294;51.818;8.484;2022-12-20T07:16:37;13.20;99.90
4564;DHT22;2294;51.818;8.484;2022-12-20T07:19:06;13.10;99.90
4564;DHT22;2294;51.818;8.484;2022-12-20T07:21:33;13.30;99.90
4564;DHT22;2294;51.818;8.484;2022-12-20T07:23:59;13.40;99.90
4564;DHT22;2294;51.818;8.484;2022-12-20T07:26:26;13.30;99.90
4564;DHT22;2294;51.818;8.484;2022-12-20T07:28:53;13.40;99.90
4564;DHT22;2294;51.818;8.484;2022-12-20T07:31:22;13.40;99.90
4564;DHT22;2294;51.818;8.484;2022-12-20T07:33:49;13.30;99.90
4564;DHT22;2294;51.818;8.484;2022-12-20T07:36:15;13.40;99.90
4564;DHT22;2294;51.818;8.484;2022-12-20T07:38:42;13.40;99.90
4564;DHT22;2294;51.818;8.484;2022-12-20T07:41:11;13.40;99.90
4564;DHT22;2294;51.818;8.484;2022-12-20T07:43:38;13.40;99.90
4564;DHT22;2294;51.818;8.484;2022-12-20T07:46:06;13.50;99.90
4564;DHT22;2294;51.818;8.484;2022-12-20T07:48:34;13.40;99.90
4564;DHT22;2294;51.818;8.484;2022-12-20T07:51:05;13.30;99.90
4564;DHT22;2294;51.818;8.484;2022-12-20T07:53:34;13.30;99.90
4564;DHT22;2294;51.818;8.484;2022-12-20T07:56:04;13.40;99.90
4564;DHT22;2294;51.818;8.484;2022-12-20T07:58:33;13.30;99.90
4564;DHT22;2294;51.818;8.484;2022-12-20T08:01:01;13.20;99.90
4564;DHT22;2294;51.818;8.484;2022-12-20T08:03:31;13.00;99.90
4564;DHT22;2294;51.818;8.484;2022-12-20T08:06:02;12.80;99.90
4564;DHT22;2294;51.818;8.484;2022-12-20T08:08:32;12.70;99.90
4564;DHT22;2294;51.818;8.484;2022-12-20T08:11:01;12.70;99.90
4564;DHT22;2294;51.818;8.484;2022-12-20T08:13:29;12.50;99.90
4564;DHT22;2294;51.818;8.484;2022-12-20T08:15:57;12.60;99.90
4564;DHT22;2294;51.818;8.484;2022-12-20T08:18:24;12.30;99.90
4564;DHT22;2294;51.818;8.484;2022-12-20T08:20:51;12.20;99.90
4564;DHT22;2294;51.818;8.484;2022-12-20T08:23:19;12.20;99.90
4564;DHT22;2294;51.818;8.484;2022-12-20T08:25:46;12.30;99.90
4564;DHT22;2294;51.818;8.484;2022-12-20T08:28:13;12.60;99.90
4564;DHT22;2294;51.818;8.484;2022-12-20T08:30:40;12.40;99.90
4564;DHT22;2294;51.818;8.484;2022-12-20T08:33:07;13.10;99.90
4564;DHT22;2294;51.818;8.484;2022-12-20T08:35:34;13.50;99.90
4564;DHT22;2294;51.818;8.484;2022-12-20T08:38:01;13.70;99.90
4564;DHT22;2294;51.818;8.484;2022-12-20T08:40:29;13.80;99.90
4564;DHT22;2294;51.818;8.484;2022-12-20T08:42:57;13.70;99.90
4564;DHT22;2294;51.818;8.484;2022-12-20T08:45:24;13.30;99.90
4564;DHT22;2294;51.818;8.484;2022-12-20T08:47:52;12.80;99.90
4564;DHT22;2294;51.818;8.484;2022-12-20T08:50:19;12.80;99.90
4564;DHT22;2294;51.818;8.484;2022-12-20T08:52:46;12.60;99.90
4564;DHT22;2294;51.818;8.484;2022-12-20T08:55:13;12.60;99.90
4564;DHT22;2294;51.818;8.484;2022-12-20T08:57:41;12.50;99.90
4564;DHT22;2294;51.818;8.484;2022-12-20T09:00:09;12.40;99.90
4564;DHT22;2294;51.818;8.484;2022-12-20T09:02:36;12.50;99.90
4564;DHT22;2294;51.818;8.484;2022-12-20T09:05:06;12.50;99.90
4564;DHT22;2294;51.818;8.484;2022-12-20T09:07:33;12.40;99.90
4564;DHT22;2294;51.818;8.484;2022-12-20T09:09:59;12.50;99.90
4564;DHT22;2294;51.818;8.484;2022-12-20T09:12:26;12.50;99.90
4564;DHT22;2294;51.818;8.484;2022-12-20T09:14:55;12.60;99.90
4564;DHT22;2294;51.818;8.484;2022-12-20T09:17:22;12.80;99.90
4564;DHT22;2294;51.818;8.484;2022-12-20T09:19:49;12.90;99.90
4564;DHT22;2294;51.818;8.484;2022-12-20T09:22:15;13.00;99.90
4564;DHT22;2294;51.818;8.484;2022-12-20T09:24:42;13.20;99.90
4564;DHT22;2294;51.818;8.484;2022-12-20T09:27:09;13.30;99.90
4564;DHT22;2294;51.818;8.484;2022-12-20T09:29:36;13.40;99.90
4564;DHT22;2294;51.818;8.484;2022-12-20T09:32:05;13.40;99.90
4564;DHT22;2294;51.818;8.484;2022-12-20T09:34:32;13.40;99.90
4564;DHT22;2294;51.818;8.484;2022-12-20T09:36:59;13.50;99.90
4564;DHT22;2294;51.818;8.484;2022-12-20T09:39:25;13.40;99.90
4564;DHT22;2294;51.818;8.484;2022-12-20T09:41:53;13.40;99.90
4564;DHT22;2294;51.818;8.484;2022-12-20T09:44:24;13.30;99.90
4564;DHT22;2294;51.818;8.484;2022-12-20T09:46:54;13.30;99.90
4564;DHT22;2294;51.818;8.484;2022-12-20T09:49:26;13.30;99.90
4564;DHT22;2294;51.818;8.484;2022-12-20T09:52:09;13.30;99.90
4564;DHT22;2294;51.818;8.484;2022-12-20T09:54:46;13.30;99.90
4564;DHT22;2294;51.818;8.484;2022-12-20T09:57:20;13.40;99.90
4564;DHT22;2294;51.818;8.484;2022-12-20T09:59:49;13.40;99.90
4564;DHT22;2294;51.818;8.484;2022-12-20T10:02:19;12.90;99.90
4564;DHT22;2294;51.818;8.484;2022-12-20T10:04:48;13.40;99.90
4564;DHT22;2294;51.818;8.484;2022-12-20T10:07:25;13.30;99.90
4564;DHT22;2294;51.818;8.484;2022-12-20T10:10:14;13.30;99.90
4564;DHT22;2294;51.818;8.484;2022-12-20T10:12:49;13.30;99.90
4564;DHT22;2294;51.818;8.484;2022-12-20T10:15:21;13.30;99.90
4564;DHT22;2294;51.818;8.484;2022-12-20T10:18:02;13.30;99.90
4564;DHT22;2294;51.818;8.484;2022-12-20T10:20:44;12.90;99.90
4564;DHT22;2294;51.818;8.484;2022-12-20T10:23:18;13.20;99.90
4564;DHT22;2294;51.818;8.484;2022-12-20T10:25:49;13.10;99.90
4564;DHT22;2294;51.818;8.484;2022-12-20T10:28:19;13.00;99.90
4564;DHT22;2294;51.818;8.484;2022-12-20T10:30:48;13.00;99.90
4564;DHT22;2294;51.818;8.484;2022-12-20T10:33:19;13.10;99.90
4564;DHT22;2294;51.818;8.484;2022-12-20T10:35:48;13.20;99.90
4564;DHT22;2294;51.818;8.484;2022-12-20T10:38:16;13.10;99.90
4564;DHT22;2294;51.818;8.484;2022-12-20T10:40:46;13.00;99.90
4564;DHT22;2294;51.818;8.484;2022-12-20T10:43:16;12.90;99.90
4564;DHT22;2294;51.818;8.484;2022-12-20T10:45:55;12.90;99.90
4564;DHT22;2294;51.818;8.484;2022-12-20T10:48:28;12.90;99.90
4564;DHT22;2294;51.818;8.484;2022-12-20T10:50:59;13.00;99.90
4564;DHT22;2294;51.818;8.484;2022-12-20T10:53:26;13.00;99.90
4564;DHT22;2294;51.818;8.484;2022-12-20T10:56:06;13.00;99.90
4564;DHT22;2294;51.818;8.484;2022-12-20T10:58:36;13.00;99.90
4564;DHT22;2294;51.818;8.484;2022-12-20T11:01:09;13.00;99.90
4564;DHT22;2294;51.818;8.484;2022-12-20T11:03:50;13.00;99.90
4564;DHT22;2294;51.818;8.484;2022-12-20T11:06:20;13.00;99.90
4564;DHT22;2294;51.818;8.484;2022-12-20T11:08:47;13.80;99.90
4564;DHT22;2294;51.818;8.484;2022-12-20T11:11:17;13.00;99.90
4564;DHT22;2294;51.818;8.484;2022-12-20T11:13:45;13.00;99.90
4564;DHT22;2294;51.818;8.484;2022-12-20T11:16:27;13.10;99.90
4564;DHT22;2294;51.818;8.484;2022-12-20T11:19:17;13.10;99.90
4564;DHT22;2294;51.818;8.484;2022-12-20T11:21:54;13.20;99.90
4564;DHT22;2294;51.818;8.484;2022-12-20T11:24:30;13.10;99.90
4564;DHT22;2294;51.818;8.484;2022-12-20T11:27:10;13.10;99.90
4564;DHT22;2294;51.818;8.484;2022-12-20T11:30:06;13.20;99.90
4564;DHT22;2294;51.818;8.484;2022-12-20T11:32:46;13.10;99.90
4564;DHT22;2294;51.818;8.484;2022-12-20T11:35:19;13.10;99.90
4564;DHT22;2294;51.818;8.484;2022-12-20T11:37:58;13.20;99.90
4564;DHT22;2294;51.818;8.484;2022-12-20T11:40:30;13.30;99.90
4564;DHT22;2294;51.818;8.484;2022-12-20T11:43:29;13.30;99.90
4564;DHT22;2294;51.818;8.484;2022-12-20T11:46:15;13.20;99.90
4564;DHT22;2294;51.818;8.484;2022-12-20T11:48:56;13.20;99.90
4564;DHT22;2294;51.818;8.484;2022-12-20T11:51:33;13.10;99.90
4564;DHT22;2294;51.818;8.484;2022-12-20T11:54:11;13.20;99.90
4564;DHT22;2294;51.818;8.484;2022-12-20T11:56:41;13.30;99.90
4564;DHT22;2294;51.818;8.484;2022-12-20T11:59:14;13.30;99.90
4564;DHT22;2294;51.818;8.484;2022-12-20T12:01:49;13.20;99.90
4564;DHT22;2294;51.818;8.484;2022-12-20T12:04:20;13.30;99.90
4564;DHT22;2294;51.818;8.484;2022-12-20T12:06:51;13.20;99.90
4564;DHT22;2294;51.818;8.484;2022-12-20T12:09:24;13.20;99.90
4564;DHT22;2294;51.818;8.484;2022-12-20T12:11:57;13.30;99.90
4564;DHT22;2294;51.818;8.484;2022-12-20T12:14:36;13.30;99.90
4564;DHT22;2294;51.818;8.484;2022-12-20T12:17:08;13.40;99.90
4564;DHT22;2294;51.818;8.484;2022-12-20T12:19:41;13.40;99.90
4564;DHT22;2294;51.818;8.484;2022-12-20T12:22:15;13.40;99.90
4564;DHT22;2294;51.818;8.484;2022-12-20T12:24:47;13.20;99.90
4564;DHT22;2294;51.818;8.484;2022-12-20T12:27:20;13.20;99.90
4564;DHT22;2294;51.818;8.484;2022-12-20T12:29:48;13.10;99.90
4564;DHT22;2294;51.818;8.484;2022-12-20T12:32:18;12.30;99.90
4564;DHT22;2294;51.818;8.484;2022-12-20T12:35:03;13.00;99.90
4564;DHT22;2294;51.818;8.484;2022-12-20T12:37:47;13.00;99.90
4564;DHT22;2294;51.818;8.484;2022-12-20T12:40:36;13.10;99.90
4564;DHT22;2294;51.818;8.484;2022-12-20T12:43:22;13.20;99.90
4564;DHT22;2294;51.818;8.484;2022-12-20T12:45:59;13.30;99.90
4564;DHT22;2294;51.818;8.484;2022-12-20T12:48:32;13.30;99.90
4564;DHT22;2294;51.818;8.484;2022-12-20T12:51:02;13.20;99.90
4564;DHT22;2294;51.818;8.484;2022-12-20T12:53:34;13.30;99.90
4564;DHT22;2294;51.818;8.484;2022-12-20T12:56:31;13.30;99.90
4564;DHT22;2294;51.818;8.484;2022-12-20T12:59:22;13.40;99.90
4564;DHT22;2294;51.818;8.484;2022-12-20T13:01:51;13.40;99.90
4564;DHT22;2294;51.818;8.484;2022-12-20T13:04:26;13.40;99.90
4564;DHT22;2294;51.818;8.484;2022-12-20T13:07:01;13.40;99.90
4564;DHT22;2294;51.818;8.484;2022-12-20T13:09:40;13.40;99.90
4564;DHT22;2294;51.818;8.484;2022-12-20T13:18:26;13.40;99.90
4564;DHT22;2294;51.818;8.484;2022-12-20T13:27:30;13.30;99.90
4564;DHT22;2294;51.818;8.484;2022-12-20T13:33:18;13.60;99.90
4564;DHT22;2294;51.818;8.484;2022-12-20T13:38:49;13.50;99.90
4564;DHT22;2294;51.818;8.484;2022-12-20T13:41:39;13.40;99.90
4564;DHT22;2294;51.818;8.484;2022-12-20T13:44:34;13.60;99.90
4564;DHT22;2294;51.818;8.484;2022-12-20T13:49:47;13.50;99.90
4564;DHT22;2294;51.818;8.484;2022-12-20T13:52:23;13.50;99.90
4564;DHT22;2294;51.818;8.484;2022-12-20T13:54:53;13.60;99.90
4564;DHT22;2294;51.818;8.484;2022-12-20T13:57:26;13.60;99.90
4564;DHT22;2294;51.818;8.484;2022-12-20T13:59:56;13.60;99.90
4564;DHT22;2294;51.818;8.484;2022-12-20T14:02:27;13.50;99.90
4564;DHT22;2294;51.818;8.484;2022-12-20T14:04:58;13.60;99.90
4564;DHT22;2294;51.818;8.484;2022-12-20T14:07:27;13.60;99.90
4564;DHT22;2294;51.818;8.484;2022-12-20T14:09:57;13.50;99.90
4564;DHT22;2294;51.818;8.484;2022-12-20T14:12:24;13.60;99.90
4564;DHT22;2294;51.818;8.484;2022-12-20T14:14:51;13.60;99.90
4564;DHT22;2294;51.818;8.484;2022-12-20T14:17:23;13.60;99.90
4564;DHT22;2294;51.818;8.484;2022-12-20T14:20:13;13.60;99.90
4564;DHT22;2294;51.818;8.484;2022-12-20T14:22:48;13.60;99.90
4564;DHT22;2294;51.818;8.484;2022-12-20T14:25:23;13.60;99.90
4564;DHT22;2294;51.818;8.484;2022-12-20T14:27:52;13.60;99.90
4564;DHT22;2294;51.818;8.484;2022-12-20T14:30:39;13.70;99.90
4564;DHT22;2294;51.818;8.484;2022-12-20T14:33:17;13.50;99.90
4564;DHT22;2294;51.818;8.484;2022-12-20T14:35:46;13.50;99.90
4564;DHT22;2294;51.818;8.484;2022-12-20T14:38:21;13.40;99.90
4564;DHT22;2294;51.818;8.484;2022-12-20T14:40:48;13.50;99.90
4564;DHT22;2294;51.818;8.484;2022-12-20T14:43:15;13.50;99.90
4564;DHT22;2294;51.818;8.484;2022-12-20T14:45:42;13.40;99.90
4564;DHT22;2294;51.818;8.484;2022-12-20T14:48:15;13.30;99.90
4564;DHT22;2294;51.818;8.484;2022-12-20T14:50:50;13.30;99.90
4564;DHT22;2294;51.818;8.484;2022-12-20T14:53:22;13.40;99.90
4564;DHT22;2294;51.818;8.484;2022-12-20T14:55:52;13.40;99.90
4564;DHT22;2294;51.818;8.484;2022-12-20T14:58:24;13.30;99.90
4564;DHT22;2294;51.818;8.484;2022-12-20T15:00:56;13.30;99.90
4564;DHT22;2294;51.818;8.484;2022-12-20T15:03:23;13.40;99.90
4564;DHT22;2294;51.818;8.484;2022-12-20T15:05:52;13.40;99.90
4564;DHT22;2294;51.818;8.484;2022-12-20T15:08:22;13.20;99.90
4564;DHT22;2294;51.818;8.484;2022-12-20T15:11:00;13.30;99.90
4564;DHT22;2294;51.818;8.484;2022-12-20T15:13:31;13.20;99.90
4564;DHT22;2294;51.818;8.484;2022-12-20T15:16:02;13.20;99.90
4564;DHT22;2294;51.818;8.484;2022-12-20T15:18:30;13.20;99.90
4564;DHT22;2294;51.818;8.484;2022-12-20T15:21:01;13.10;99.90
4564;DHT22;2294;51.818;8.484;2022-12-20T15:23:30;13.10;99.90
4564;DHT22;2294;51.818;8.484;2022-12-20T15:25:57;13.20;99.90
4564;DHT22;2294;51.818;8.484;2022-12-20T15:28:26;13.20;99.90
4564;DHT22;2294;51.818;8.484;2022-12-20T15:30:53;13.20;99.90
4564;DHT22;2294;51.818;8.484;2022-12-20T15:33:22;13.20;99.90
4564;DHT22;2294;51.818;8.484;2022-12-20T15:35:50;13.20;99.90
4564;DHT22;2294;51.818;8.484;2022-12-20T15:38:19;13.30;99.90
4564;DHT22;2294;51.818;8.484;2022-12-20T15:40:49;13.30;99.90
4564;DHT22;2294;51.818;8.484;2022-12-20T15:43:18;13.30;99.90
4564;DHT22;2294;51.818;8.484;2022-12-20T15:45:47;13.30;99.90
4564;DHT22;2294;51.818;8.484;2022-12-20T15:48:17;13.40;99.90
4564;DHT22;2294;51.818;8.484;2022-12-20T15:50:50;13.40;99.90
4564;DHT22;2294;51.818;8.484;2022-12-20T15:53:19;13.50;99.90
4564;DHT22;2294;51.818;8.484;2022-12-20T15:55:50;13.50;99.90
4564;DHT22;2294;51.818;8.484;2022-12-20T15:58:17;13.40;99.90
4564;DHT22;2294;51.818;8.484;2022-12-20T16:00:45;13.50;99.90
4564;DHT22;2294;51.818;8.484;2022-12-20T16:03:14;13.50;99.90
4564;DHT22;2294;51.818;8.484;2022-12-20T16:05:42;13.50;99.90
4564;DHT22;2294;51.818;8.484;2022-12-20T16:08:08;13.60;99.90
4564;DHT22;2294;51.818;8.484;2022-12-20T16:10:35;13.50;99.90
4564;DHT22;2294;51.818;8.484;2022-12-20T16:13:04;13.50;99.90
4564;DHT22;2294;51.818;8.484;2022-12-20T16:15:32;13.50;99.90
4564;DHT22;2294;51.818;8.484;2022-12-20T16:17:59;13.50;99.90
4564;DHT22;2294;51.818;8.484;2022-12-20T16:20:26;13.50;99.90
4564;DHT22;2294;51.818;8.484;2022-12-20T16:22:54;13.50;99.90
4564;DHT22;2294;51.818;8.484;2022-12-20T16:25:26;13.50;99.90
4564;DHT22;2294;51.818;8.484;2022-12-20T16:27:53;13.50;99.90
4564;DHT22;2294;51.818;8.484;2022-12-20T16:30:22;13.50;99.90
4564;DHT22;2294;51.818;8.484;2022-12-20T16:32:49;13.50;99.90
4564;DHT22;2294;51.818;8.484;2022-12-20T16:35:27;13.50;99.90
4564;DHT22;2294;51.818;8.484;2022-12-20T16:37:55;13.60;99.90
4564;DHT22;2294;51.818;8.484;2022-12-20T16:40:24;13.50;99.90
4564;DHT22;2294;51.818;8.484;2022-12-20T16:42:51;13.50;99.90
4564;DHT22;2294;51.818;8.484;2022-12-20T16:45:21;13.60;99.90